Pagrindinis puslapis
METAR-TAF:

METAR-TAF

Oro uostai :

Mihailo Kogelničanu tarptautinis oro uostas

Konstanca, Rumunija

platuma: 44-20N, ilguma: 028-26E, Aukštis: 97 m

Dabartinis oras

Ataskaita buvo paskelbta 36 minutes, ne 17:30 UTC
Vėjas 5 kt iš Pietų/Pietryčių
Temperatūra 17°C
Drėgmė 48%
Slėgis 1023 hPa
Matomumas 10 km arba daugiau
nėra debesų žemiau 1500 m ir nėra kamuolinių lietaus debesų

METAR: LRCK 151730Z 15005KT CAVOK 17/06 Q1023 NOSIG

Laikas: 21:06 (18:06 UTC)

Prognozė

Ataskaita buvo paskelbta 1 valandą ir 6 minutes, ne 17:00 UTC
Prognozė galioja nuo 15 metu 18 UTC su 16 metu 18 UTC
Vėjas 6 kt iš Pietryčių
Matomumas 10 km arba daugiau
nėra debesų žemiau 1500 m ir nėra kamuolinių lietaus debesų
Tapsmas
nuo 16 metu 08 UTC su 16 metu 10 UTC
Vėjas 10 kt iš Vakarų
Tapsmas
nuo 16 metu 16 UTC su 16 metu 18 UTC
Vėjas 4 kt nuo kintamojo kryptimis

TAF: LRCK 151700Z 1518/1618 14006KT CAVOK BECMG 1608/1610 26010KT BECMG 1616/1618 VRB04KT

Orai ataskaitas ir orų prognozės (METAR, TAF).

turimą stotys yra geltonos ir raudonos taškus žemėlapyje.

Perkelti pele per norėdami pamatyti stoties vardą.

Tada spustelėkite, norėdami matyti oro stebėjimo ir prognozės.

Norėdami pakeisti žemėlapį: spustelėkite ant žalios mygtukų su juodo kryžiaus žemyn,; žalią mygtuką su brūkšneliu, jei norite nutolinti; arba žalių rodyklių gretimoms žemėlapius.


METAR-TAF: